sensor_id;sensor_type;location;lat;lon;timestamp;P1;durP1;ratioP1;P2;durP2;ratioP2
62543;SDS011;48597;49.030;1.822;2022-10-22T00:01:25;0.98;;;0.80;;
62543;SDS011;48597;49.030;1.822;2022-10-22T00:03:52;1.63;;;0.88;;
62543;SDS011;48597;49.030;1.822;2022-10-22T00:06:17;1.40;;;0.90;;
62543;SDS011;48597;49.030;1.822;2022-10-22T00:08:43;1.30;;;0.90;;
62543;SDS011;48597;49.030;1.822;2022-10-22T00:11:11;1.08;;;0.75;;
62543;SDS011;48597;49.030;1.822;2022-10-22T00:13:38;2.53;;;0.85;;
62543;SDS011;48597;49.030;1.822;2022-10-22T00:16:04;0.88;;;0.80;;
62543;SDS011;48597;49.030;1.822;2022-10-22T00:18:29;1.13;;;0.85;;
62543;SDS011;48597;49.030;1.822;2022-10-22T00:20:55;0.93;;;0.80;;
62543;SDS011;48597;49.030;1.822;2022-10-22T00:23:20;0.73;;;0.68;;
62543;SDS011;48597;49.030;1.822;2022-10-22T00:25:46;1.33;;;0.63;;
62543;SDS011;48597;49.030;1.822;2022-10-22T00:28:11;1.17;;;0.70;;
62543;SDS011;48597;49.030;1.822;2022-10-22T00:30:37;1.27;;;0.93;;
62543;SDS011;48597;49.030;1.822;2022-10-22T00:33:02;1.08;;;0.80;;
62543;SDS011;48597;49.030;1.822;2022-10-22T00:35:28;1.55;;;0.80;;
62543;SDS011;48597;49.030;1.822;2022-10-22T00:37:53;2.45;;;0.77;;
62543;SDS011;48597;49.030;1.822;2022-10-22T00:40:19;1.90;;;0.70;;
62543;SDS011;48597;49.030;1.822;2022-10-22T00:42:44;1.35;;;0.90;;
62543;SDS011;48597;49.030;1.822;2022-10-22T00:50:30;1.35;;;0.85;;
62543;SDS011;48597;49.030;1.822;2022-10-22T00:52:57;1.85;;;0.65;;
62543;SDS011;48597;49.030;1.822;2022-10-22T00:55:24;1.30;;;0.70;;
62543;SDS011;48597;49.030;1.822;2022-10-22T17:45:20;1.15;;;0.70;;
62543;SDS011;48597;49.030;1.822;2022-10-22T17:47:46;0.80;;;0.70;;
62543;SDS011;48597;49.030;1.822;2022-10-22T17:50:11;1.17;;;0.88;;
62543;SDS011;48597;49.030;1.822;2022-10-22T17:52:38;0.95;;;0.80;;
62543;SDS011;48597;49.030;1.822;2022-10-22T17:55:03;1.38;;;0.90;;
62543;SDS011;48597;49.030;1.822;2022-10-22T17:57:29;0.98;;;0.88;;
62543;SDS011;48597;49.030;1.822;2022-10-22T17:59:54;0.80;;;0.70;;
62543;SDS011;48597;49.030;1.822;2022-10-22T18:02:20;0.80;;;0.80;;
62543;SDS011;48597;49.030;1.822;2022-10-22T18:04:45;1.45;;;0.93;;
62543;SDS011;48597;49.030;1.822;2022-10-22T18:07:14;2.92;;;0.90;;
62543;SDS011;48597;49.030;1.822;2022-10-22T18:09:40;1.85;;;0.90;;
62543;SDS011;48597;49.030;1.822;2022-10-22T18:12:07;3.15;;;1.20;;
62543;SDS011;48597;49.030;1.822;2022-10-22T18:14:32;2.00;;;1.15;;
62543;SDS011;48597;49.030;1.822;2022-10-22T18:17:00;2.50;;;1.15;;
62543;SDS011;48597;49.030;1.822;2022-10-22T18:19:26;2.35;;;1.17;;
62543;SDS011;48597;49.030;1.822;2022-10-22T18:21:52;3.35;;;1.40;;
62543;SDS011;48597;49.030;1.822;2022-10-22T18:24:17;3.88;;;1.20;;
62543;SDS011;48597;49.030;1.822;2022-10-22T18:26:43;2.25;;;1.15;;
62543;SDS011;48597;49.030;1.822;2022-10-22T18:29:09;3.33;;;1.23;;
62543;SDS011;48597;49.030;1.822;2022-10-22T18:31:38;5.13;;;1.30;;
62543;SDS011;48597;49.030;1.822;2022-10-22T18:34:04;3.30;;;1.10;;
62543;SDS011;48597;49.030;1.822;2022-10-22T18:36:29;1.80;;;1.30;;
62543;SDS011;48597;49.030;1.822;2022-10-22T18:38:57;5.20;;;1.98;;
62543;SDS011;48597;49.030;1.822;2022-10-22T18:41:24;4.30;;;1.95;;
62543;SDS011;48597;49.030;1.822;2022-10-22T18:43:53;4.63;;;1.95;;
62543;SDS011;48597;49.030;1.822;2022-10-22T18:46:20;6.13;;;2.35;;
62543;SDS011;48597;49.030;1.822;2022-10-22T18:48:47;6.72;;;2.47;;
62543;SDS011;48597;49.030;1.822;2022-10-22T18:51:13;7.20;;;2.53;;
62543;SDS011;48597;49.030;1.822;2022-10-22T18:53:39;5.05;;;2.45;;
62543;SDS011;48597;49.030;1.822;2022-10-22T18:56:06;6.30;;;2.25;;
62543;SDS011;48597;49.030;1.822;2022-10-22T18:58:39;6.43;;;2.58;;
62543;SDS011;48597;49.030;1.822;2022-10-22T19:01:06;7.18;;;2.10;;
62543;SDS011;48597;49.030;1.822;2022-10-22T19:03:39;6.82;;;2.25;;
62543;SDS011;48597;49.030;1.822;2022-10-22T19:06:04;5.50;;;2.20;;
62543;SDS011;48597;49.030;1.822;2022-10-22T19:08:30;6.90;;;2.17;;
62543;SDS011;48597;49.030;1.822;2022-10-22T19:10:56;9.98;;;2.47;;
62543;SDS011;48597;49.030;1.822;2022-10-22T19:13:22;10.40;;;2.30;;
62543;SDS011;48597;49.030;1.822;2022-10-22T19:15:49;8.02;;;2.50;;
62543;SDS011;48597;49.030;1.822;2022-10-22T19:18:15;8.88;;;2.60;;
62543;SDS011;48597;49.030;1.822;2022-10-22T19:20:40;8.30;;;2.38;;
62543;SDS011;48597;49.030;1.822;2022-10-22T19:23:06;6.10;;;2.22;;
62543;SDS011;48597;49.030;1.822;2022-10-22T19:25:32;9.52;;;2.50;;
62543;SDS011;48597;49.030;1.822;2022-10-22T19:27:58;7.28;;;2.45;;
62543;SDS011;48597;49.030;1.822;2022-10-22T19:30:23;5.05;;;2.55;;
62543;SDS011;48597;49.030;1.822;2022-10-22T19:32:48;11.02;;;2.15;;
62543;SDS011;48597;49.030;1.822;2022-10-22T19:35:14;8.00;;;2.45;;
62543;SDS011;48597;49.030;1.822;2022-10-22T19:37:40;7.55;;;2.28;;
62543;SDS011;48597;49.030;1.822;2022-10-22T19:40:06;7.88;;;2.53;;
62543;SDS011;48597;49.030;1.822;2022-10-22T19:42:32;6.38;;;2.08;;
62543;SDS011;48597;49.030;1.822;2022-10-22T19:44:57;5.22;;;1.95;;
62543;SDS011;48597;49.030;1.822;2022-10-22T19:47:23;5.80;;;2.03;;
62543;SDS011;48597;49.030;1.822;2022-10-22T19:49:48;5.47;;;2.00;;
62543;SDS011;48597;49.030;1.822;2022-10-22T19:52:14;6.70;;;2.08;;
62543;SDS011;48597;49.030;1.822;2022-10-22T19:54:39;6.78;;;2.20;;
62543;SDS011;48597;49.030;1.822;2022-10-22T19:57:06;5.72;;;2.17;;
62543;SDS011;48597;49.030;1.822;2022-10-22T19:59:32;4.40;;;1.77;;
62543;SDS011;48597;49.030;1.822;2022-10-22T20:01:58;5.80;;;2.03;;
62543;SDS011;48597;49.030;1.822;2022-10-22T20:04:24;4.55;;;2.10;;
62543;SDS011;48597;49.030;1.822;2022-10-22T20:06:52;5.25;;;2.00;;
62543;SDS011;48597;49.030;1.822;2022-10-22T20:09:18;4.82;;;2.05;;
62543;SDS011;48597;49.030;1.822;2022-10-22T20:11:44;5.50;;;2.20;;
62543;SDS011;48597;49.030;1.822;2022-10-22T20:14:10;5.15;;;1.98;;
62543;SDS011;48597;49.030;1.822;2022-10-22T20:16:35;5.35;;;2.25;;
62543;SDS011;48597;49.030;1.822;2022-10-22T20:19:03;2.72;;;1.90;;
62543;SDS011;48597;49.030;1.822;2022-10-22T20:21:29;8.00;;;2.17;;
62543;SDS011;48597;49.030;1.822;2022-10-22T20:23:55;5.28;;;2.08;;
62543;SDS011;48597;49.030;1.822;2022-10-22T20:26:21;4.68;;;2.00;;
62543;SDS011;48597;49.030;1.822;2022-10-22T20:28:49;5.80;;;1.83;;
62543;SDS011;48597;49.030;1.822;2022-10-22T20:31:16;4.38;;;2.33;;
62543;SDS011;48597;49.030;1.822;2022-10-22T20:33:43;3.20;;;1.70;;
62543;SDS011;48597;49.030;1.822;2022-10-22T20:36:14;5.63;;;1.95;;
62543;SDS011;48597;49.030;1.822;2022-10-22T20:38:42;4.20;;;1.85;;
62543;SDS011;48597;49.030;1.822;2022-10-22T20:41:09;4.53;;;1.83;;
62543;SDS011;48597;49.030;1.822;2022-10-22T20:43:36;2.90;;;1.73;;
62543;SDS011;48597;49.030;1.822;2022-10-22T20:46:02;3.30;;;1.88;;
62543;SDS011;48597;49.030;1.822;2022-10-22T20:48:28;5.35;;;2.17;;
62543;SDS011;48597;49.030;1.822;2022-10-22T20:50:55;3.20;;;1.92;;
62543;SDS011;48597;49.030;1.822;2022-10-22T20:53:21;2.85;;;1.70;;
62543;SDS011;48597;49.030;1.822;2022-10-22T20:55:48;3.78;;;1.85;;
62543;SDS011;48597;49.030;1.822;2022-10-22T20:58:16;4.97;;;2.17;;
62543;SDS011;48597;49.030;1.822;2022-10-22T21:00:45;2.92;;;2.08;;
62543;SDS011;48597;49.030;1.822;2022-10-22T21:03:12;3.78;;;2.08;;
62543;SDS011;48597;49.030;1.822;2022-10-22T21:05:37;4.50;;;2.08;;
62543;SDS011;48597;49.030;1.822;2022-10-22T21:08:03;3.92;;;2.10;;
62543;SDS011;48597;49.030;1.822;2022-10-22T21:10:29;2.83;;;2.08;;
62543;SDS011;48597;49.030;1.822;2022-10-22T21:12:55;3.80;;;1.80;;
62543;SDS011;48597;49.030;1.822;2022-10-22T21:15:22;3.22;;;1.70;;
62543;SDS011;48597;49.030;1.822;2022-10-22T21:17:48;3.65;;;2.05;;
62543;SDS011;48597;49.030;1.822;2022-10-22T21:20:13;3.70;;;1.95;;
62543;SDS011;48597;49.030;1.822;2022-10-22T21:22:39;4.70;;;1.95;;
62543;SDS011;48597;49.030;1.822;2022-10-22T21:25:04;3.58;;;2.00;;
62543;SDS011;48597;49.030;1.822;2022-10-22T21:27:30;2.42;;;1.80;;
62543;SDS011;48597;49.030;1.822;2022-10-22T21:29:55;3.20;;;1.95;;
62543;SDS011;48597;49.030;1.822;2022-10-22T21:32:21;3.38;;;1.90;;
62543;SDS011;48597;49.030;1.822;2022-10-22T21:34:46;3.00;;;1.80;;
62543;SDS011;48597;49.030;1.822;2022-10-22T21:37:11;2.58;;;1.90;;
62543;SDS011;48597;49.030;1.822;2022-10-22T21:39:37;3.67;;;1.83;;
62543;SDS011;48597;49.030;1.822;2022-10-22T21:42:02;2.88;;;1.83;;
62543;SDS011;48597;49.030;1.822;2022-10-22T21:44:28;3.30;;;2.00;;
62543;SDS011;48597;49.030;1.822;2022-10-22T21:46:54;2.35;;;1.77;;
62543;SDS011;48597;49.030;1.822;2022-10-22T21:49:19;4.53;;;2.33;;
62543;SDS011;48597;49.030;1.822;2022-10-22T21:51:45;5.35;;;2.10;;
62543;SDS011;48597;49.030;1.822;2022-10-22T21:54:10;9.32;;;2.15;;
62543;SDS011;48597;49.030;1.822;2022-10-22T21:56:36;9.95;;;2.20;;
62543;SDS011;48597;49.030;1.822;2022-10-22T21:59:02;3.95;;;1.85;;
62543;SDS011;48597;49.030;1.822;2022-10-22T22:01:28;5.40;;;2.05;;
62543;SDS011;48597;49.030;1.822;2022-10-22T22:03:54;7.90;;;2.20;;
62543;SDS011;48597;49.030;1.822;2022-10-22T22:06:20;6.05;;;2.28;;
62543;SDS011;48597;49.030;1.822;2022-10-22T22:08:47;6.10;;;1.90;;
62543;SDS011;48597;49.030;1.822;2022-10-22T22:11:15;5.95;;;1.90;;
62543;SDS011;48597;49.030;1.822;2022-10-22T22:13:45;2.92;;;1.90;;
62543;SDS011;48597;49.030;1.822;2022-10-22T22:16:14;7.82;;;2.30;;
62543;SDS011;48597;49.030;1.822;2022-10-22T22:18:41;5.43;;;2.22;;
62543;SDS011;48597;49.030;1.822;2022-10-22T22:21:11;4.90;;;1.88;;
62543;SDS011;48597;49.030;1.822;2022-10-22T22:23:39;3.50;;;2.10;;
62543;SDS011;48597;49.030;1.822;2022-10-22T22:26:07;5.32;;;2.10;;
62543;SDS011;48597;49.030;1.822;2022-10-22T22:28:33;4.05;;;2.00;;
62543;SDS011;48597;49.030;1.822;2022-10-22T22:31:00;6.10;;;2.17;;
62543;SDS011;48597;49.030;1.822;2022-10-22T22:33:25;3.20;;;1.58;;
62543;SDS011;48597;49.030;1.822;2022-10-22T22:35:51;3.55;;;2.00;;
62543;SDS011;48597;49.030;1.822;2022-10-22T22:38:17;3.88;;;2.10;;
62543;SDS011;48597;49.030;1.822;2022-10-22T22:40:42;2.38;;;1.80;;
62543;SDS011;48597;49.030;1.822;2022-10-22T22:43:07;4.20;;;2.30;;
62543;SDS011;48597;49.030;1.822;2022-10-22T22:45:34;4.05;;;1.80;;
62543;SDS011;48597;49.030;1.822;2022-10-22T22:48:02;4.65;;;1.85;;
62543;SDS011;48597;49.030;1.822;2022-10-22T22:50:27;5.00;;;1.95;;
62543;SDS011;48597;49.030;1.822;2022-10-22T22:52:55;3.13;;;1.70;;
62543;SDS011;48597;49.030;1.822;2022-10-22T22:55:21;4.57;;;1.90;;
62543;SDS011;48597;49.030;1.822;2022-10-22T22:57:47;4.28;;;2.05;;
62543;SDS011;48597;49.030;1.822;2022-10-22T23:00:12;3.85;;;2.13;;
62543;SDS011;48597;49.030;1.822;2022-10-22T23:02:39;3.75;;;2.03;;
62543;SDS011;48597;49.030;1.822;2022-10-22T23:05:04;3.58;;;1.80;;
62543;SDS011;48597;49.030;1.822;2022-10-22T23:07:30;2.80;;;1.80;;
62543;SDS011;48597;49.030;1.822;2022-10-22T23:09:56;3.25;;;1.90;;
62543;SDS011;48597;49.030;1.822;2022-10-22T23:12:21;3.95;;;1.85;;
62543;SDS011;48597;49.030;1.822;2022-10-22T23:14:48;2.92;;;1.70;;
62543;SDS011;48597;49.030;1.822;2022-10-22T23:17:15;4.32;;;1.80;;
62543;SDS011;48597;49.030;1.822;2022-10-22T23:19:40;3.55;;;1.75;;
62543;SDS011;48597;49.030;1.822;2022-10-22T23:22:05;3.95;;;1.70;;
62543;SDS011;48597;49.030;1.822;2022-10-22T23:24:31;2.33;;;1.83;;
62543;SDS011;48597;49.030;1.822;2022-10-22T23:26:59;3.70;;;1.70;;
62543;SDS011;48597;49.030;1.822;2022-10-22T23:29:26;2.38;;;1.70;;
62543;SDS011;48597;49.030;1.822;2022-10-22T23:31:58;5.40;;;2.03;;
62543;SDS011;48597;49.030;1.822;2022-10-22T23:36:52;5.00;;;2.00;;
62543;SDS011;48597;49.030;1.822;2022-10-22T23:39:19;2.95;;;1.80;;
62543;SDS011;48597;49.030;1.822;2022-10-22T23:41:46;4.18;;;1.50;;
62543;SDS011;48597;49.030;1.822;2022-10-22T23:44:12;3.03;;;1.63;;
62543;SDS011;48597;49.030;1.822;2022-10-22T23:46:38;3.15;;;1.80;;
62543;SDS011;48597;49.030;1.822;2022-10-22T23:49:04;3.78;;;1.80;;
62543;SDS011;48597;49.030;1.822;2022-10-22T23:51:30;1.70;;;1.50;;
62543;SDS011;48597;49.030;1.822;2022-10-22T23:53:57;3.97;;;1.75;;
62543;SDS011;48597;49.030;1.822;2022-10-22T23:56:24;2.00;;;1.60;;
62543;SDS011;48597;49.030;1.822;2022-10-22T23:58:50;2.78;;;1.50;;
